Terminal Aerodrome Forecast
Issued by NWS

Home | Current Version | Previous Version | Text Only | Print | Product List | Glossary On
Versions: 1 2 3 4 5 6 7 8 9 10 11 12 13 14 15
000
FTUS45 KFGZ 240538
TAFSEZ
TAF
KSEZ 240538Z 2406/2506 VRB06KT P6SM SCT070
     FM242000 24009KT P6SM FEW070
     FM250300 04009KT P6SM SKC=

USA.gov is the U.S. government's official web portal to all federal, state and local government web resources and services.